Time;durP1;ratioP1;P1;durP2;ratioP2;P2;SDS_P1;SDS_P2;PMS_P1;PMS_P2;Temp;Humidity;BMP_temperature;BMP_pressure;BME280_temperature;BME280_humidity;BME280_pressure;Samples;Min_cycle;Max_cycle;Signal;HPM_P1;HPM_P2
2021/12/10 00:00:59;;;;;;;;;;;;;;;;;;2097722;28;19936;-57
2021/12/10 00:02:01;;;;;;;;;;;;;;;;;;2096249;28;22672;-57
2021/12/10 00:03:02;;;;;;;;;;;;;;;;;;2098354;28;19932;-57
2021/12/10 00:04:03;;;;;;;;;;;;;;;;;;2098266;28;19933;-57
2021/12/10 00:05:03;;;;;;;;;;;;;;;;;;2097216;28;19932;-57
2021/12/10 00:06:04;;;;;;;;;;;;;;;;;;2105924;28;19924;-57
2021/12/10 00:07:05;;;;;;;;;;;;;;;;;;2106586;28;20342;-57
2021/12/10 00:08:06;;;;;;;;;;;;;;;;;;2099782;28;20434;-57
2021/12/10 00:09:06;;;;;;;;;;;;;;;;;;2098124;28;19928;-57
2021/12/10 00:10:07;;;;;;;;;;;;;;;;;;2098323;28;19974;-57
2021/12/10 00:11:08;;;;;;;;;;;;;;;;;;2096327;28;19948;-56
2021/12/10 00:12:09;;;;;;;;;;;;;;;;;;2098269;28;20296;-57
2021/12/10 00:13:10;;;;;;;;;;;;;;;;;;2098301;28;19925;-57
2021/12/10 00:14:11;;;;;;;;;;;;;;;;;;2097081;28;20383;-43
2021/12/10 00:15:11;;;;;;;;;;;;;;;;;;2098232;28;19928;-43
2021/12/10 00:16:12;;;;;;;;;;;;;;;;;;2090300;28;20070;-44
2021/12/10 00:17:13;;;;;;;;;;;;;;;;;;2094878;28;20398;-44
2021/12/10 00:18:14;;;;;;;;;;;;;;;;;;2104309;28;19924;-44
2021/12/10 00:19:27;;;;;;;;;;;;;;;;;;2097332;28;19925;-43
2021/12/10 00:20:28;;;;;;;;;;;;;;;;;;2086809;28;19924;-44
2021/12/10 00:21:29;;;;;;;;;;;;;;;;;;2096467;28;20274;-41
2021/12/10 00:22:36;;;;;;;;;;;;;;;;;;2087245;28;19924;-44
2021/12/10 00:23:37;;;;;;;;;;;;;;;;;;2098474;28;19928;-43
2021/12/10 00:24:38;;;;;;;;;;;;;;;;;;2095980;28;19924;-43
2021/12/10 00:25:39;;;;;;;;;;;;;;;;;;2097678;28;19951;-43
2021/12/10 00:26:40;;;;;;;;;;;;;;;;;;2096097;28;20006;-43
2021/12/10 00:27:41;;;;;;;;;;;;;;;;;;2097651;28;19925;-43
2021/12/10 00:28:42;;;;;;;;;;;;;;;;;;2099395;28;19964;-43
2021/12/10 00:29:48;;;;;;;;;;;;;;;;;;2106551;28;19972;-43
2021/12/10 00:30:59;;;;;;;;;;;;;;;;;;2099875;28;20143;-43
2021/12/10 00:32:02;;;;;;;;;;;;;;;;;;2098373;28;20270;-43
2021/12/10 00:33:10;;;;;;;;;;;;;;;;;;2098074;28;20368;-43
2021/12/10 00:34:10;;;;;;;;;;;;;;;;;;2098141;28;20015;-43
2021/12/10 00:35:11;;;;;;;;;;;;;;;;;;2098051;28;20297;-43
2021/12/10 00:36:12;;;;;;;;;;;;;;;;;;2098005;28;19993;-43
2021/12/10 00:37:13;;;;;;;;;;;;;;;;;;2099029;28;20377;-43
2021/12/10 00:38:14;;;;;;;;;;;;;;;;;;2106417;28;19924;-43
2021/12/10 00:39:15;;;;;;;;;;;;;;;;;;2100717;28;19928;-43
2021/12/10 00:40:16;;;;;;;;;;;;;;;;;;2098293;28;19929;-44
2021/12/10 00:41:17;;;;;;;;;;;;;;;;;;2088712;28;19932;-43
2021/12/10 00:42:17;;;;;;;;;;;;;;;;;;2094020;28;20305;-43
2021/12/10 00:43:18;;;;;;;;;;;;;;;;;;2097878;28;19982;-43
2021/12/10 00:44:19;;;;;;;;;;;;;;;;;;2097972;28;19936;-43
2021/12/10 00:45:20;;;;;;;;;;;;;;;;;;2095766;28;19928;-43
2021/12/10 00:46:21;;;;;;;;;;;;;;;;;;2099671;28;19924;-43
2021/12/10 00:47:21;;;;;;;;;;;;;;;;;;2097930;28;19936;-43
2021/12/10 00:48:22;;;;;;;;;;;;;;;;;;2097183;28;19924;-43
2021/12/10 00:49:23;;;;;;;;;;;;;;;;;;2098732;28;19928;-43
2021/12/10 00:50:24;;;;;;;;;;;;;;;;;;2098117;28;19951;-43
2021/12/10 00:51:25;;;;;;;;;;;;;;;;;;2097156;28;19939;-43
2021/12/10 00:52:26;;;;;;;;;;;;;;;;;;2097796;28;19970;-43
2021/12/10 00:53:27;;;;;;;;;;;;;;;;;;2098348;28;19932;-43
2021/12/10 00:54:28;;;;;;;;;;;;;;;;;;2097250;28;20335;-43
2021/12/10 00:55:28;;;;;;;;;;;;;;;;;;2099003;28;20385;-43
2021/12/10 00:56:29;;;;;;;;;;;;;;;;;;2097929;28;20273;-43
2021/12/10 00:57:30;;;;;;;;;;;;;;;;;;2096656;28;19928;-43
2021/12/10 00:58:31;;;;;;;;;;;;;;;;;;2096613;28;20019;-43
2021/12/10 00:59:31;;;;;;;;;;;;;;;;;;2097665;28;20400;-43
2021/12/10 01:00:32;;;;;;;;;;;;;;;;;;2096700;28;20296;-43
2021/12/10 01:01:33;;;;;;;;;;;;;;;;;;2091834;28;20297;-44
2021/12/10 01:02:34;;;;;;;;;;;;;;;;;;2094522;28;19939;-44
2021/12/10 01:03:35;;;;;;;;;;;;;;;;;;2095293;28;22611;-43
2021/12/10 01:04:36;;;;;;;;;;;;;;;;;;2105557;28;19924;-43
2021/12/10 01:05:37;;;;;;;;;;;;;;;;;;2102699;28;19928;-43
2021/12/10 01:06:38;;;;;;;;;;;;;;;;;;2097801;28;19924;-43
2021/12/10 01:07:39;;;;;;;;;;;;;;;;;;2106185;28;19949;-44
2021/12/10 01:08:39;;;;;;;;;;;;;;;;;;2106403;28;19932;-43
2021/12/10 01:09:40;;;;;;;;;;;;;;;;;;2096128;28;19925;-43
2021/12/10 01:10:41;;;;;;;;;;;;;;;;;;2097971;28;19932;-43
2021/12/10 01:11:42;;;;;;;;;;;;;;;;;;2097881;28;19925;-43
2021/12/10 01:12:43;;;;;;;;;;;;;;;;;;2097663;28;19924;-43
2021/12/10 01:13:46;;;;;;;;;;;;;;;;;;2098048;28;19979;-43
2021/12/10 01:14:59;;;;;;;;;;;;;;;;;;2097516;28;19924;-43
2021/12/10 01:16:14;;;;;;;;;;;;;;;;;;2098100;28;20377;-43
2021/12/10 01:23:54;;;;;;;;;;;;;;;;;;2090898;28;20366;-57
2021/12/10 01:25:07;;;;;;;;;;;;;;;;;;2100903;28;20027;-57
2021/12/10 01:26:11;;;;;;;;;;;;;;;;;;2106375;28;19951;-57
2021/12/10 01:27:23;;;;;;;;;;;;;;;;;;2100371;28;19928;-58
2021/12/10 01:28:25;;;;;;;;;;;;;;;;;;2097650;28;20007;-57
2021/12/10 01:29:26;;;;;;;;;;;;;;;;;;2097896;28;19931;-57
2021/12/10 01:30:27;;;;;;;;;;;;;;;;;;2097541;28;19925;-57
2021/12/10 01:31:28;;;;;;;;;;;;;;;;;;2097780;28;19929;-57
2021/12/10 01:32:29;;;;;;;;;;;;;;;;;;2097727;28;19924;-57
2021/12/10 01:33:29;;;;;;;;;;;;;;;;;;2098981;28;19928;-57
2021/12/10 01:34:30;;;;;;;;;;;;;;;;;;2097739;28;20003;-58
2021/12/10 01:35:31;;;;;;;;;;;;;;;;;;2095536;28;19925;-58
2021/12/10 01:36:32;;;;;;;;;;;;;;;;;;2098058;28;19932;-58
2021/12/10 01:37:32;;;;;;;;;;;;;;;;;;2097726;28;20335;-57
2021/12/10 01:38:33;;;;;;;;;;;;;;;;;;2097250;28;20007;-57
2021/12/10 01:39:34;;;;;;;;;;;;;;;;;;2099345;28;19924;-58
2021/12/10 01:40:36;;;;;;;;;;;;;;;;;;2106128;28;19981;-58
2021/12/10 01:41:39;;;;;;;;;;;;;;;;;;2103973;28;19951;-57
2021/12/10 01:42:45;;;;;;;;;;;;;;;;;;2098194;28;20008;-57
2021/12/10 01:43:47;;;;;;;;;;;;;;;;;;2097727;28;20023;-58
2021/12/10 01:44:50;;;;;;;;;;;;;;;;;;2097124;28;19962;-57
2021/12/10 01:45:51;;;;;;;;;;;;;;;;;;2102645;28;19932;-57
2021/12/10 01:46:52;;;;;;;;;;;;;;;;;;2106055;28;20333;-58
2021/12/10 01:47:53;;;;;;;;;;;;;;;;;;2100507;28;20011;-58
2021/12/10 01:48:54;;;;;;;;;;;;;;;;;;2105692;28;20388;-58
2021/12/10 01:49:55;;;;;;;;;;;;;;;;;;2106054;28;19924;-57
2021/12/10 01:50:55;;;;;;;;;;;;;;;;;;2098475;28;19924;-58
2021/12/10 01:51:56;;;;;;;;;;;;;;;;;;2097688;28;19932;-58
2021/12/10 01:52:57;;;;;;;;;;;;;;;;;;2097644;28;19932;-57
2021/12/10 01:54:01;;;;;;;;;;;;;;;;;;2097473;28;19928;-57
2021/12/10 01:55:02;;;;;;;;;;;;;;;;;;2097655;28;20345;-58
2021/12/10 01:56:03;;;;;;;;;;;;;;;;;;2097187;28;19966;-57
2021/12/10 01:57:03;;;;;;;;;;;;;;;;;;2097861;28;19932;-57
2021/12/10 01:58:04;;;;;;;;;;;;;;;;;;2097767;28;19925;-58
2021/12/10 01:59:05;;;;;;;;;;;;;;;;;;2097251;28;19928;-57
2021/12/10 02:00:06;;;;;;;;;;;;;;;;;;2098968;28;19924;-57
2021/12/10 02:01:06;;;;;;;;;;;;;;;;;;2097689;28;19925;-57
2021/12/10 02:02:07;;;;;;;;;;;;;;;;;;2097106;28;20282;-58
2021/12/10 02:03:08;;;;;;;;;;;;;;;;;;2098317;28;19932;-43
2021/12/10 02:04:10;;;;;;;;;;;;;;;;;;2097608;28;20601;-43
2021/12/10 02:05:11;;;;;;;;;;;;;;;;;;2096975;28;20011;-43
2021/12/10 02:06:12;;;;;;;;;;;;;;;;;;2097340;28;20372;-43
2021/12/10 02:07:13;;;;;;;;;;;;;;;;;;2097680;28;20335;-43
2021/12/10 02:08:13;;;;;;;;;;;;;;;;;;2096615;28;19925;-43
2021/12/10 02:09:14;;;;;;;;;;;;;;;;;;2104326;28;19924;-42
2021/12/10 02:10:15;;;;;;;;;;;;;;;;;;2096984;28;20308;-43
2021/12/10 02:11:16;;;;;;;;;;;;;;;;;;2098744;28;20281;-43
2021/12/10 02:12:18;;;;;;;;;;;;;;;;;;2097367;28;19925;-43
2021/12/10 02:13:19;;;;;;;;;;;;;;;;;;2097594;28;19924;-43
2021/12/10 02:14:20;;;;;;;;;;;;;;;;;;2098454;28;20058;-43
2021/12/10 02:15:22;;;;;;;;;;;;;;;;;;2106031;28;19932;-43
2021/12/10 02:16:23;;;;;;;;;;;;;;;;;;2104318;28;20359;-43
2021/12/10 02:17:23;;;;;;;;;;;;;;;;;;2097789;28;19939;-43
2021/12/10 02:18:25;;;;;;;;;;;;;;;;;;2097802;28;19932;-43
2021/12/10 02:19:26;;;;;;;;;;;;;;;;;;2096740;28;19971;-57
2021/12/10 02:20:27;;;;;;;;;;;;;;;;;;2100400;28;19974;-57
2021/12/10 02:21:29;;;;;;;;;;;;;;;;;;2105862;28;19924;-57
2021/12/10 02:22:30;;;;;;;;;;;;;;;;;;2102106;28;19985;-57
2021/12/10 02:23:32;;;;;;;;;;;;;;;;;;2101383;28;20430;-57
2021/12/10 02:24:33;;;;;;;;;;;;;;;;;;2106670;28;20032;-57
2021/12/10 02:25:36;;;;;;;;;;;;;;;;;;2102786;28;20384;-57
2021/12/10 02:26:37;;;;;;;;;;;;;;;;;;2099440;28;19982;-57
2021/12/10 02:27:37;;;;;;;;;;;;;;;;;;2099039;28;20258;-57
2021/12/10 02:28:38;;;;;;;;;;;;;;;;;;2098425;28;19929;-58
2021/12/10 02:29:40;;;;;;;;;;;;;;;;;;2104860;28;19932;-58
2021/12/10 02:30:41;;;;;;;;;;;;;;;;;;2107265;28;20026;-57
2021/12/10 02:31:42;;;;;;;;;;;;;;;;;;2101988;28;20277;-57
2021/12/10 02:32:43;;;;;;;;;;;;;;;;;;2105609;28;19924;-57
2021/12/10 02:33:44;;;;;;;;;;;;;;;;;;2107598;28;19967;-58
2021/12/10 02:34:49;;;;;;;;;;;;;;;;;;2101142;28;19929;-57
2021/12/10 02:35:50;;;;;;;;;;;;;;;;;;2098537;28;20089;-57
2021/12/10 02:36:50;;;;;;;;;;;;;;;;;;2087939;28;19925;-57
2021/12/10 02:37:51;;;;;;;;;;;;;;;;;;2096123;28;19924;-58
2021/12/10 02:38:52;;;;;;;;;;;;;;;;;;2100773;28;20292;-57
2021/12/10 02:39:53;;;;;;;;;;;;;;;;;;2098651;28;19960;-57
2021/12/10 02:40:54;;;;;;;;;;;;;;;;;;2096935;28;20323;-58
2021/12/10 02:41:55;;;;;;;;;;;;;;;;;;2098795;28;20330;-58
2021/12/10 02:42:55;;;;;;;;;;;;;;;;;;2098924;28;19925;-57
2021/12/10 02:43:56;;;;;;;;;;;;;;;;;;2100174;28;19924;-58
2021/12/10 02:44:57;;;;;;;;;;;;;;;;;;2097078;28;19924;-58
2021/12/10 02:45:58;;;;;;;;;;;;;;;;;;2098354;28;19928;-58
2021/12/10 02:46:59;;;;;;;;;;;;;;;;;;2099089;28;20411;-57
2021/12/10 02:47:59;;;;;;;;;;;;;;;;;;2099002;28;19936;-57
2021/12/10 02:49:00;;;;;;;;;;;;;;;;;;2098316;28;20176;-58
2021/12/10 02:50:01;;;;;;;;;;;;;;;;;;2099205;28;19931;-58
2021/12/10 02:51:02;;;;;;;;;;;;;;;;;;2098737;28;19924;-57
2021/12/10 02:52:03;;;;;;;;;;;;;;;;;;2098202;28;20015;-57
2021/12/10 02:53:03;;;;;;;;;;;;;;;;;;2099207;28;19925;-57
2021/12/10 02:54:05;;;;;;;;;;;;;;;;;;2097104;28;19967;-58
2021/12/10 02:55:05;;;;;;;;;;;;;;;;;;2098240;28;20014;-58
2021/12/10 02:56:06;;;;;;;;;;;;;;;;;;2098472;28;20444;-57
2021/12/10 02:57:07;;;;;;;;;;;;;;;;;;2098759;28;19960;-57
2021/12/10 02:58:09;;;;;;;;;;;;;;;;;;2098495;28;19932;-58
2021/12/10 02:59:09;;;;;;;;;;;;;;;;;;2099703;28;20357;-58
2021/12/10 03:00:10;;;;;;;;;;;;;;;;;;2098699;28;19936;-57
2021/12/10 03:01:11;;;;;;;;;;;;;;;;;;2097892;28;20339;-58
2021/12/10 03:02:13;;;;;;;;;;;;;;;;;;2106069;28;20049;-58
2021/12/10 03:03:14;;;;;;;;;;;;;;;;;;2107100;28;19931;-57
2021/12/10 03:04:15;;;;;;;;;;;;;;;;;;2101195;28;19925;-57
2021/12/10 03:05:16;;;;;;;;;;;;;;;;;;2107193;28;20007;-57
2021/12/10 03:06:17;;;;;;;;;;;;;;;;;;2105381;28;19924;-58
2021/12/10 03:07:19;;;;;;;;;;;;;;;;;;2103142;28;19934;-57
2021/12/10 03:08:20;;;;;;;;;;;;;;;;;;2107002;28;20006;-57
2021/12/10 03:09:20;;;;;;;;;;;;;;;;;;2101726;28;19932;-57
2021/12/10 03:10:21;;;;;;;;;;;;;;;;;;2097689;28;19924;-57
2021/12/10 03:11:22;;;;;;;;;;;;;;;;;;2098673;28;19924;-57
2021/12/10 03:12:23;;;;;;;;;;;;;;;;;;2097628;28;19925;-57
2021/12/10 03:13:24;;;;;;;;;;;;;;;;;;2099234;28;19924;-57
2021/12/10 03:14:24;;;;;;;;;;;;;;;;;;2098736;28;20147;-57
2021/12/10 03:15:25;;;;;;;;;;;;;;;;;;2097569;28;19925;-58
2021/12/10 03:16:26;;;;;;;;;;;;;;;;;;2099619;28;19932;-57
2021/12/10 03:17:27;;;;;;;;;;;;;;;;;;2098639;28;19925;-57
2021/12/10 03:18:28;;;;;;;;;;;;;;;;;;2098618;28;19925;-57
2021/12/10 03:19:28;;;;;;;;;;;;;;;;;;2098653;28;20258;-57
2021/12/10 03:20:29;;;;;;;;;;;;;;;;;;2098635;28;19979;-58
2021/12/10 03:21:30;;;;;;;;;;;;;;;;;;2098605;28;19924;-58
2021/12/10 03:22:31;;;;;;;;;;;;;;;;;;2098355;28;20388;-57
2021/12/10 03:23:32;;;;;;;;;;;;;;;;;;2098730;28;20019;-58
2021/12/10 03:24:33;;;;;;;;;;;;;;;;;;2098314;28;19925;-58
2021/12/10 03:25:34;;;;;;;;;;;;;;;;;;2098764;28;19956;-58
2021/12/10 03:26:35;;;;;;;;;;;;;;;;;;2098643;28;19924;-58
2021/12/10 03:27:35;;;;;;;;;;;;;;;;;;2098502;28;19924;-58
2021/12/10 03:28:36;;;;;;;;;;;;;;;;;;2107124;28;20453;-57
2021/12/10 03:29:37;;;;;;;;;;;;;;;;;;2106328;28;20439;-57
2021/12/10 03:30:38;;;;;;;;;;;;;;;;;;2098727;28;19932;-57
2021/12/10 03:31:39;;;;;;;;;;;;;;;;;;2098506;28;19995;-58
2021/12/10 03:32:40;;;;;;;;;;;;;;;;;;2098007;28;19932;-57
2021/12/10 03:33:41;;;;;;;;;;;;;;;;;;2102523;28;19924;-57
2021/12/10 03:34:42;;;;;;;;;;;;;;;;;;2106883;28;20011;-57
2021/12/10 03:35:43;;;;;;;;;;;;;;;;;;2102397;28;19925;-58
2021/12/10 03:36:46;;;;;;;;;;;;;;;;;;2103352;28;19924;-57
2021/12/10 03:37:47;;;;;;;;;;;;;;;;;;2106819;28;20448;-57
2021/12/10 03:38:47;;;;;;;;;;;;;;;;;;2101189;28;19925;-57
2021/12/10 03:39:48;;;;;;;;;;;;;;;;;;2104487;28;19969;-58
2021/12/10 03:40:49;;;;;;;;;;;;;;;;;;2107005;28;20376;-58
2021/12/10 03:41:50;;;;;;;;;;;;;;;;;;2101064;28;19937;-57
2021/12/10 03:42:53;;;;;;;;;;;;;;;;;;2098513;28;19924;-58
2021/12/10 03:43:54;;;;;;;;;;;;;;;;;;2098642;28;19924;-57
2021/12/10 03:44:54;;;;;;;;;;;;;;;;;;2096870;28;20274;-58
2021/12/10 03:45:55;;;;;;;;;;;;;;;;;;2098496;28;19924;-57
2021/12/10 03:46:56;;;;;;;;;;;;;;;;;;2098550;28;20361;-57
2021/12/10 03:47:57;;;;;;;;;;;;;;;;;;2098218;28;19924;-58
2021/12/10 03:49:03;;;;;;;;;;;;;;;;;;2098536;28;19932;-57
2021/12/10 03:50:03;;;;;;;;;;;;;;;;;;2098578;28;19930;-57
2021/12/10 03:51:04;;;;;;;;;;;;;;;;;;2097967;28;20308;-58
2021/12/10 03:52:05;;;;;;;;;;;;;;;;;;2098430;28;19924;-57
2021/12/10 03:53:06;;;;;;;;;;;;;;;;;;2098086;28;19924;-58
2021/12/10 03:54:07;;;;;;;;;;;;;;;;;;2099280;28;19925;-58
2021/12/10 03:55:07;;;;;;;;;;;;;;;;;;2106774;28;19924;-57
2021/12/10 03:56:08;;;;;;;;;;;;;;;;;;2105390;28;19935;-58
2021/12/10 03:57:09;;;;;;;;;;;;;;;;;;2100185;28;20274;-58
2021/12/10 03:58:10;;;;;;;;;;;;;;;;;;2106771;28;20021;-57
2021/12/10 03:59:11;;;;;;;;;;;;;;;;;;2104559;28;19928;-58
2021/12/10 04:00:12;;;;;;;;;;;;;;;;;;2098683;28;19967;-58
2021/12/10 04:01:12;;;;;;;;;;;;;;;;;;2098415;28;19938;-58
2021/12/10 04:02:13;;;;;;;;;;;;;;;;;;2097804;28;19931;-58
2021/12/10 04:03:14;;;;;;;;;;;;;;;;;;2098813;28;19925;-58
2021/12/10 04:04:15;;;;;;;;;;;;;;;;;;2098425;28;19924;-58
2021/12/10 04:05:16;;;;;;;;;;;;;;;;;;2097572;28;20792;-58
2021/12/10 04:06:17;;;;;;;;;;;;;;;;;;2104761;28;19931;-58
2021/12/10 04:07:18;;;;;;;;;;;;;;;;;;2106671;28;20304;-56
2021/12/10 04:08:18;;;;;;;;;;;;;;;;;;2099978;28;19928;-57
2021/12/10 04:09:19;;;;;;;;;;;;;;;;;;2105178;28;19931;-58
2021/12/10 04:10:20;;;;;;;;;;;;;;;;;;2106789;28;19935;-58
2021/12/10 04:11:21;;;;;;;;;;;;;;;;;;2100284;28;20396;-58
2021/12/10 04:12:22;;;;;;;;;;;;;;;;;;2098117;28;19924;-57
2021/12/10 04:13:23;;;;;;;;;;;;;;;;;;2098264;28;20404;-58
2021/12/10 04:14:24;;;;;;;;;;;;;;;;;;2096948;28;19925;-58
2021/12/10 04:15:25;;;;;;;;;;;;;;;;;;2106668;28;20300;-57
2021/12/10 04:16:26;;;;;;;;;;;;;;;;;;2106811;28;20377;-57
2021/12/10 04:17:27;;;;;;;;;;;;;;;;;;2098777;28;20297;-57
2021/12/10 04:18:27;;;;;;;;;;;;;;;;;;2098273;28;19989;-58
2021/12/10 04:19:28;;;;;;;;;;;;;;;;;;2098396;28;19925;-58
2021/12/10 04:20:29;;;;;;;;;;;;;;;;;;2097970;28;19924;-58
2021/12/10 04:21:30;;;;;;;;;;;;;;;;;;2098191;28;19967;-57
2021/12/10 04:22:32;;;;;;;;;;;;;;;;;;2097670;28;19925;-58
2021/12/10 04:23:32;;;;;;;;;;;;;;;;;;2100701;28;19931;-58
2021/12/10 04:24:33;;;;;;;;;;;;;;;;;;2106575;28;20285;-58
2021/12/10 04:25:34;;;;;;;;;;;;;;;;;;2104853;28;19924;-58
2021/12/10 04:26:35;;;;;;;;;;;;;;;;;;2098584;28;19924;-57
2021/12/10 04:27:36;;;;;;;;;;;;;;;;;;2098074;28;20015;-58
2021/12/10 04:28:37;;;;;;;;;;;;;;;;;;2097535;28;19928;-58
2021/12/10 04:29:38;;;;;;;;;;;;;;;;;;2098557;28;20553;-58
2021/12/10 04:30:42;;;;;;;;;;;;;;;;;;2098125;28;19928;-57
2021/12/10 04:31:43;;;;;;;;;;;;;;;;;;2097364;28;19925;-57
2021/12/10 04:32:44;;;;;;;;;;;;;;;;;;2102761;28;20361;-57
2021/12/10 04:33:45;;;;;;;;;;;;;;;;;;2106507;28;19924;-58
2021/12/10 04:34:47;;;;;;;;;;;;;;;;;;2101971;28;20225;-58
2021/12/10 04:35:47;;;;;;;;;;;;;;;;;;2099045;28;20030;-58
2021/12/10 04:36:48;;;;;;;;;;;;;;;;;;2098180;28;20293;-58
2021/12/10 04:37:49;;;;;;;;;;;;;;;;;;2096962;28;20297;-57
2021/12/10 04:38:50;;;;;;;;;;;;;;;;;;2098985;28;19928;-58
2021/12/10 04:39:51;;;;;;;;;;;;;;;;;;2098222;28;20373;-58
2021/12/10 04:40:52;;;;;;;;;;;;;;;;;;2097027;28;20392;-58
2021/12/10 04:41:53;;;;;;;;;;;;;;;;;;2098713;28;19977;-58
2021/12/10 04:42:54;;;;;;;;;;;;;;;;;;2098109;28;19925;-58
2021/12/10 04:43:55;;;;;;;;;;;;;;;;;;2097112;28;19931;-58
2021/12/10 04:44:55;;;;;;;;;;;;;;;;;;2103686;28;20312;-58
2021/12/10 04:45:56;;;;;;;;;;;;;;;;;;2106418;28;20418;-60
2021/12/10 04:46:57;;;;;;;;;;;;;;;;;;2098578;28;19930;-58
2021/12/10 04:47:58;;;;;;;;;;;;;;;;;;2105650;28;20373;-58
2021/12/10 04:48:59;;;;;;;;;;;;;;;;;;2106408;28;20473;-58
2021/12/10 04:49:59;;;;;;;;;;;;;;;;;;2099506;28;19970;-58
2021/12/10 04:51:00;;;;;;;;;;;;;;;;;;2097993;28;19935;-58
2021/12/10 04:52:01;;;;;;;;;;;;;;;;;;2097882;28;19924;-58
2021/12/10 04:53:02;;;;;;;;;;;;;;;;;;2097856;28;19929;-58
2021/12/10 04:54:03;;;;;;;;;;;;;;;;;;2098002;28;19924;-58
2021/12/10 04:55:03;;;;;;;;;;;;;;;;;;2098036;28;19931;-58
2021/12/10 04:56:04;;;;;;;;;;;;;;;;;;2097787;28;20333;-58
2021/12/10 04:57:05;;;;;;;;;;;;;;;;;;2097964;28;19958;-58
2021/12/10 04:58:06;;;;;;;;;;;;;;;;;;2097586;28;19925;-58
2021/12/10 04:59:07;;;;;;;;;;;;;;;;;;2098440;28;20045;-43
2021/12/10 05:00:07;;;;;;;;;;;;;;;;;;2098048;28;19925;-43
2021/12/10 05:01:08;;;;;;;;;;;;;;;;;;2097492;28;19932;-43
2021/12/10 05:02:09;;;;;;;;;;;;;;;;;;2100710;28;20049;-43
2021/12/10 05:03:10;;;;;;;;;;;;;;;;;;2106400;28;20407;-43
2021/12/10 05:04:11;;;;;;;;;;;;;;;;;;2104253;28;19924;-43
2021/12/10 05:05:12;;;;;;;;;;;;;;;;;;2099502;28;19968;-43
2021/12/10 05:06:13;;;;;;;;;;;;;;;;;;2097922;28;19931;-43
2021/12/10 05:07:14;;;;;;;;;;;;;;;;;;2097361;28;19931;-43
2021/12/10 05:08:14;;;;;;;;;;;;;;;;;;2099411;28;19928;-43
2021/12/10 05:09:15;;;;;;;;;;;;;;;;;;2098038;28;20293;-43
2021/12/10 05:10:16;;;;;;;;;;;;;;;;;;2097225;28;20411;-43
2021/12/10 05:11:17;;;;;;;;;;;;;;;;;;2099301;28;20023;-43
2021/12/10 05:12:18;;;;;;;;;;;;;;;;;;2097932;28;20249;-43
2021/12/10 05:13:20;;;;;;;;;;;;;;;;;;2096950;28;19929;-43
2021/12/10 05:14:21;;;;;;;;;;;;;;;;;;2098792;28;19981;-43
2021/12/10 05:15:22;;;;;;;;;;;;;;;;;;2097987;28;20402;-43
2021/12/10 05:16:26;;;;;;;;;;;;;;;;;;2097130;28;20316;-43
2021/12/10 05:17:28;;;;;;;;;;;;;;;;;;2097659;28;19928;-44
2021/12/10 05:18:29;;;;;;;;;;;;;;;;;;2098065;28;19928;-43
2021/12/10 05:19:30;;;;;;;;;;;;;;;;;;2096744;28;19929;-44
2021/12/10 05:20:31;;;;;;;;;;;;;;;;;;2104705;28;19924;-43
2021/12/10 05:21:32;;;;;;;;;;;;;;;;;;2106110;28;19924;-43
2021/12/10 05:22:32;;;;;;;;;;;;;;;;;;2099970;28;19924;-43
2021/12/10 05:23:33;;;;;;;;;;;;;;;;;;2097689;28;19954;-43
2021/12/10 05:24:34;;;;;;;;;;;;;;;;;;2097954;28;19924;-43
2021/12/10 05:25:35;;;;;;;;;;;;;;;;;;2097904;28;19948;-43
2021/12/10 05:26:36;;;;;;;;;;;;;;;;;;2097797;28;20301;-42
2021/12/10 05:27:36;;;;;;;;;;;;;;;;;;2097772;28;19935;-43
2021/12/10 05:28:37;;;;;;;;;;;;;;;;;;2097640;28;19925;-42
2021/12/10 05:29:38;;;;;;;;;;;;;;;;;;2097909;28;19981;-44
2021/12/10 05:30:39;;;;;;;;;;;;;;;;;;2097914;28;20550;-53
2021/12/10 05:31:40;;;;;;;;;;;;;;;;;;2097871;28;19938;-43
2021/12/10 05:32:42;;;;;;;;;;;;;;;;;;2097678;28;19924;-44
2021/12/10 05:33:43;;;;;;;;;;;;;;;;;;2097512;28;19924;-42
2021/12/10 05:34:44;;;;;;;;;;;;;;;;;;2098815;28;20369;-43
2021/12/10 05:35:45;;;;;;;;;;;;;;;;;;2106113;28;20265;-43
2021/12/10 05:36:46;;;;;;;;;;;;;;;;;;2104571;28;20345;-44
2021/12/10 05:37:47;;;;;;;;;;;;;;;;;;2097605;28;19931;-43
2021/12/10 05:38:48;;;;;;;;;;;;;;;;;;2097939;28;19932;-43
2021/12/10 05:39:49;;;;;;;;;;;;;;;;;;2097137;28;19925;-43
2021/12/10 05:40:49;;;;;;;;;;;;;;;;;;2100294;28;19977;-43
2021/12/10 05:41:50;;;;;;;;;;;;;;;;;;2106099;28;19928;-44
2021/12/10 05:42:51;;;;;;;;;;;;;;;;;;2103016;28;20327;-43
2021/12/10 05:43:52;;;;;;;;;;;;;;;;;;2098214;28;20274;-44
2021/12/10 05:44:53;;;;;;;;;;;;;;;;;;2100269;28;19924;-44
2021/12/10 05:45:54;;;;;;;;;;;;;;;;;;2102106;28;19947;-43
2021/12/10 05:46:54;;;;;;;;;;;;;;;;;;2098541;28;19936;-43
2021/12/10 05:47:55;;;;;;;;;;;;;;;;;;2097614;28;19937;-44
2021/12/10 05:48:56;;;;;;;;;;;;;;;;;;2097005;28;19928;-43
2021/12/10 05:49:57;;;;;;;;;;;;;;;;;;2101439;28;19925;-43
2021/12/10 05:50:58;;;;;;;;;;;;;;;;;;2105992;28;19930;-42
2021/12/10 05:51:58;;;;;;;;;;;;;;;;;;2101068;28;19982;-44
2021/12/10 05:52:59;;;;;;;;;;;;;;;;;;2103090;28;20037;-43
2021/12/10 05:54:00;;;;;;;;;;;;;;;;;;2106071;28;19928;-44
2021/12/10 05:55:01;;;;;;;;;;;;;;;;;;2100140;28;19928;-43
2021/12/10 05:56:02;;;;;;;;;;;;;;;;;;2098535;28;20277;-43
2021/12/10 05:57:02;;;;;;;;;;;;;;;;;;2097629;28;20388;-43
2021/12/10 05:58:03;;;;;;;;;;;;;;;;;;2097543;28;19998;-44
2021/12/10 05:59:04;;;;;;;;;;;;;;;;;;2104611;28;20015;-43
2021/12/10 06:00:05;;;;;;;;;;;;;;;;;;2107430;28;19931;-43
2021/12/10 06:01:06;;;;;;;;;;;;;;;;;;2101349;28;19924;-43
2021/12/10 06:02:07;;;;;;;;;;;;;;;;;;2099039;28;19982;-43
2021/12/10 06:03:08;;;;;;;;;;;;;;;;;;2099128;28;19924;-44
2021/12/10 06:04:09;;;;;;;;;;;;;;;;;;2098996;28;20373;-44
2021/12/10 06:05:09;;;;;;;;;;;;;;;;;;2099117;28;19974;-44
2021/12/10 06:06:10;;;;;;;;;;;;;;;;;;2099023;28;19929;-43
2021/12/10 06:07:11;;;;;;;;;;;;;;;;;;2099333;28;19924;-44
2021/12/10 06:08:12;;;;;;;;;;;;;;;;;;2107468;28;19924;-43
2021/12/10 06:09:13;;;;;;;;;;;;;;;;;;2107387;28;20377;-43
2021/12/10 06:10:13;;;;;;;;;;;;;;;;;;2100353;28;19969;-43
2021/12/10 06:11:16;;;;;;;;;;;;;;;;;;2099052;28;20297;-44
2021/12/10 06:12:17;;;;;;;;;;;;;;;;;;2098653;28;19965;-43
2021/12/10 06:13:18;;;;;;;;;;;;;;;;;;2100024;28;19932;-44
2021/12/10 06:14:19;;;;;;;;;;;;;;;;;;2107416;28;19927;-44
2021/12/10 06:15:19;;;;;;;;;;;;;;;;;;2105892;28;19928;-43
2021/12/10 06:16:20;;;;;;;;;;;;;;;;;;2101795;28;19929;-43
2021/12/10 06:17:21;;;;;;;;;;;;;;;;;;2107469;28;19931;-44
2021/12/10 06:18:22;;;;;;;;;;;;;;;;;;2105157;28;20293;-42
2021/12/10 06:19:23;;;;;;;;;;;;;;;;;;2099391;28;19924;-44
2021/12/10 06:20:24;;;;;;;;;;;;;;;;;;2099064;28;19931;-44
2021/12/10 06:21:24;;;;;;;;;;;;;;;;;;2098436;28;19925;-44
2021/12/10 06:22:25;;;;;;;;;;;;;;;;;;2099306;28;19928;-44
2021/12/10 06:23:26;;;;;;;;;;;;;;;;;;2099058;28;20288;-43
2021/12/10 06:24:27;;;;;;;;;;;;;;;;;;2098005;28;19936;-43
2021/12/10 06:25:28;;;;;;;;;;;;;;;;;;2099824;28;20365;-44
2021/12/10 06:26:29;;;;;;;;;;;;;;;;;;2099034;28;20289;-43
2021/12/10 06:27:30;;;;;;;;;;;;;;;;;;2098110;28;19928;-42
2021/12/10 06:28:31;;;;;;;;;;;;;;;;;;2098676;28;19935;-44
2021/12/10 06:29:32;;;;;;;;;;;;;;;;;;2098931;28;19924;-44
2021/12/10 06:30:32;;;;;;;;;;;;;;;;;;2098020;28;19929;-43
2021/12/10 06:31:33;;;;;;;;;;;;;;;;;;2099704;28;19950;-44
2021/12/10 06:32:34;;;;;;;;;;;;;;;;;;2098995;28;19974;-43
2021/12/10 06:33:35;;;;;;;;;;;;;;;;;;2097570;28;19932;-43
2021/12/10 06:34:36;;;;;;;;;;;;;;;;;;2104983;28;19924;-43
2021/12/10 06:35:36;;;;;;;;;;;;;;;;;;2107265;28;19928;-44
2021/12/10 06:36:37;;;;;;;;;;;;;;;;;;2102590;28;19924;-43
2021/12/10 06:37:38;;;;;;;;;;;;;;;;;;2098960;28;20438;-44
2021/12/10 06:38:39;;;;;;;;;;;;;;;;;;2099110;28;19936;-43
2021/12/10 06:39:40;;;;;;;;;;;;;;;;;;2097660;28;20419;-44
2021/12/10 06:40:41;;;;;;;;;;;;;;;;;;2106336;28;19939;-44
2021/12/10 06:41:42;;;;;;;;;;;;;;;;;;2107422;28;20007;-43
2021/12/10 06:42:42;;;;;;;;;;;;;;;;;;2100263;28;20369;-44
2021/12/10 06:43:43;;;;;;;;;;;;;;;;;;2098716;28;20440;-43
2021/12/10 06:44:44;;;;;;;;;;;;;;;;;;2100084;28;19924;-43
2021/12/10 06:45:45;;;;;;;;;;;;;;;;;;2100917;28;19936;-44
2021/12/10 06:46:46;;;;;;;;;;;;;;;;;;2098903;28;19932;-44
2021/12/10 06:47:48;;;;;;;;;;;;;;;;;;2098726;28;19947;-44
2021/12/10 06:48:49;;;;;;;;;;;;;;;;;;2099674;28;20046;-43
2021/12/10 06:49:49;;;;;;;;;;;;;;;;;;2098790;28;19932;-43
2021/12/10 06:50:50;;;;;;;;;;;;;;;;;;2098294;28;19935;-43
2021/12/10 06:51:51;;;;;;;;;;;;;;;;;;2100184;28;19985;-44
2021/12/10 06:52:52;;;;;;;;;;;;;;;;;;2098844;28;19924;-43
2021/12/10 06:53:53;;;;;;;;;;;;;;;;;;2098373;28;19943;-43
2021/12/10 06:54:53;;;;;;;;;;;;;;;;;;2100215;28;20446;-44
2021/12/10 06:55:54;;;;;;;;;;;;;;;;;;2098850;28;19924;-44
2021/12/10 06:56:56;;;;;;;;;;;;;;;;;;2098278;28;19931;-44
2021/12/10 06:58:00;;;;;;;;;;;;;;;;;;2099332;28;19924;-44
2021/12/10 06:59:01;;;;;;;;;;;;;;;;;;2098747;28;19928;-43
2021/12/10 07:00:02;;;;;;;;;;;;;;;;;;2097956;28;19925;-44
2021/12/10 07:01:03;;;;;;;;;;;;;;;;;;2103291;28;19931;-44
2021/12/10 07:02:04;;;;;;;;;;;;;;;;;;2106876;28;20018;-44
2021/12/10 07:03:05;;;;;;;;;;;;;;;;;;2102797;28;19924;-44
2021/12/10 07:04:06;;;;;;;;;;;;;;;;;;2103195;28;20057;-44
2021/12/10 07:05:07;;;;;;;;;;;;;;;;;;2107110;28;19977;-44